Time;durP1;ratioP1;P1;durP2;ratioP2;P2;SDS_P1;SDS_P2;PMS_P1;PMS_P2;Temp;Humidity;BMP_temperature;BMP_pressure;BME280_temperature;BME280_humidity;BME280_pressure;Samples;Min_cycle;Max_cycle;Signal;HPM_P1;HPM_P2
2023/08/21 00:02:27;;;;;;;;;;;21.00;55.70;;;;;;5034272;28;19909;-74
2023/08/21 00:04:53;;;;;;;;;;;21.00;55.80;;;;;;5034729;28;19921;-73
2023/08/21 00:07:18;;;;;;;;;;;21.00;55.90;;;;;;5034181;28;19919;-73
2023/08/21 00:09:44;;;;;;;;;;;21.00;55.90;;;;;;5033890;28;20079;-74
2023/08/21 00:12:09;;;;;;;;;;;21.00;55.90;;;;;;5014587;28;19910;-74
2023/08/21 00:14:35;;;;;;;;;;;20.90;55.90;;;;;;5014598;28;19924;-73
2023/08/21 00:17:01;;;;;;;;;;;20.90;56.10;;;;;;5017622;28;19913;-73
2023/08/21 00:19:27;;;;;;;;;;;20.80;56.10;;;;;;5028855;28;19921;-73
2023/08/21 00:21:53;;;;;;;;;;;20.80;56.20;;;;;;5034131;28;19920;-67
2023/08/21 00:24:18;;;;;;;;;;;20.80;56.30;;;;;;5032801;28;20004;-67
2023/08/21 00:26:43;;;;;;;;;;;20.80;56.40;;;;;;5032775;28;19916;-67
2023/08/21 00:29:09;;;;;;;;;;;20.70;56.50;;;;;;5032805;28;20012;-67
2023/08/21 00:31:34;;;;;;;;;;;20.70;56.50;;;;;;5030876;28;19909;-67
2023/08/21 00:34:00;;;;;;;;;;;20.70;56.60;;;;;;5032485;28;19918;-69
2023/08/21 00:36:25;;;;;;;;;;;20.70;56.70;;;;;;5032211;28;20013;-68
2023/08/21 00:38:51;;;;;;;;;;;20.60;56.70;;;;;;5032293;28;19949;-67
2023/08/21 00:41:16;;;;;;;;;;;20.60;57.00;;;;;;5030335;28;20018;-67
2023/08/21 00:43:42;;;;;;;;;;;20.60;56.90;;;;;;5028424;28;19918;-68
2023/08/21 00:46:07;;;;;;;;;;;20.50;56.90;;;;;;5033550;28;19963;-67
2023/08/21 00:48:33;;;;;;;;;;;20.50;57.00;;;;;;5023232;28;19925;-67
2023/08/21 00:50:58;;;;;;;;;;;20.50;57.20;;;;;;5013686;28;20272;-67
2023/08/21 00:53:24;;;;;;;;;;;20.50;57.30;;;;;;5013769;28;19941;-67
2023/08/21 00:55:50;;;;;;;;;;;20.50;57.30;;;;;;5013820;28;19917;-67
2023/08/21 00:58:16;;;;;;;;;;;20.50;57.30;;;;;;5013593;28;20005;-67
2023/08/21 01:00:44;;;;;;;;;;;20.50;57.60;;;;;;5023550;28;20357;-74
2023/08/21 01:03:10;;;;;;;;;;;20.40;58.10;;;;;;5033318;28;19968;-74
2023/08/21 01:05:36;;;;;;;;;;;20.40;58.40;;;;;;5033180;28;19925;-73
2023/08/21 01:08:03;;;;;;;;;;;20.40;58.40;;;;;;5033215;28;19909;-74
2023/08/21 01:10:29;;;;;;;;;;;20.40;58.40;;;;;;5033094;28;19971;-74
2023/08/21 01:12:57;;;;;;;;;;;20.30;58.30;;;;;;5031904;28;19913;-74
2023/08/21 01:15:23;;;;;;;;;;;20.30;58.20;;;;;;5033251;28;19936;-72
2023/08/21 01:17:50;;;;;;;;;;;20.30;58.00;;;;;;5032837;28;19941;-72
2023/08/21 01:20:16;;;;;;;;;;;20.30;58.20;;;;;;5032881;28;19913;-72
2023/08/21 01:22:50;;;;;;;;;;;20.30;58.30;;;;;;5032789;28;19956;-73
2023/08/21 01:25:16;;;;;;;;;;;20.30;58.60;;;;;;5032914;28;19921;-73
2023/08/21 01:27:43;;;;;;;;;;;20.30;59.30;;;;;;5032698;28;20361;-74
2023/08/21 01:30:09;;;;;;;;;;;20.30;59.70;;;;;;5031710;28;20295;-74
2023/08/21 01:32:39;;;;;;;;;;;20.40;59.90;;;;;;5033028;28;20300;-73
2023/08/21 01:35:05;;;;;;;;;;;20.40;59.90;;;;;;5031572;28;19917;-74
2023/08/21 01:37:30;;;;;;;;;;;20.50;59.70;;;;;;5032447;28;19962;-74
2023/08/21 01:39:58;;;;;;;;;;;20.60;59.50;;;;;;5032895;28;19943;-74
2023/08/21 01:42:24;;;;;;;;;;;20.70;59.40;;;;;;5032653;28;19910;-74
2023/08/21 01:44:49;;;;;;;;;;;20.70;59.40;;;;;;5032250;28;20043;-74
2023/08/21 01:47:15;;;;;;;;;;;20.70;59.80;;;;;;5032482;28;19916;-74
2023/08/21 01:49:40;;;;;;;;;;;20.80;59.60;;;;;;5032169;28;19923;-72
2023/08/21 01:52:06;;;;;;;;;;;20.90;59.60;;;;;;5032962;28;19976;-73
2023/08/21 01:54:31;;;;;;;;;;;20.90;59.50;;;;;;5032529;28;20391;-74
2023/08/21 01:56:57;;;;;;;;;;;20.90;59.70;;;;;;5032794;28;19921;-73
2023/08/21 01:59:23;;;;;;;;;;;21.00;59.60;;;;;;5032204;28;19966;-73
2023/08/21 02:01:48;;;;;;;;;;;21.10;59.50;;;;;;5032604;28;20034;-73
2023/08/21 02:04:13;;;;;;;;;;;21.20;59.40;;;;;;5032243;28;19909;-73
2023/08/21 02:06:39;;;;;;;;;;;21.20;59.40;;;;;;5032524;28;19952;-72
2023/08/21 02:09:04;;;;;;;;;;;21.30;59.40;;;;;;5032236;28;19916;-74
2023/08/21 02:11:30;;;;;;;;;;;21.30;59.40;;;;;;5030957;28;19917;-74
2023/08/21 02:13:55;;;;;;;;;;;21.40;59.30;;;;;;5032144;28;19913;-74
2023/08/21 02:16:21;;;;;;;;;;;21.40;59.20;;;;;;5030828;28;19917;-73
2023/08/21 02:18:47;;;;;;;;;;;21.50;59.20;;;;;;5031881;28;20438;-72
2023/08/21 02:21:13;;;;;;;;;;;21.50;59.20;;;;;;5031820;28;19960;-73
2023/08/21 02:23:38;;;;;;;;;;;21.60;59.10;;;;;;5030862;28;20395;-74
2023/08/21 02:26:04;;;;;;;;;;;21.60;59.10;;;;;;5031985;28;19924;-73
2023/08/21 02:28:29;;;;;;;;;;;21.60;59.00;;;;;;5031842;28;20086;-73
2023/08/21 02:30:55;;;;;;;;;;;21.50;58.80;;;;;;5030695;28;19924;-73
2023/08/21 02:33:20;;;;;;;;;;;21.50;58.80;;;;;;5031770;28;19917;-72
2023/08/21 02:35:46;;;;;;;;;;;21.50;58.80;;;;;;5031838;28;19918;-72
2023/08/21 02:38:11;;;;;;;;;;;21.40;58.80;;;;;;5031858;28;19961;-73
2023/08/21 02:40:36;;;;;;;;;;;21.40;58.80;;;;;;5031780;28;19925;-73
2023/08/21 02:43:02;;;;;;;;;;;21.40;58.90;;;;;;5031488;28;20129;-72
2023/08/21 02:45:27;;;;;;;;;;;21.40;59.10;;;;;;5031533;28;20028;-73
2023/08/21 02:47:53;;;;;;;;;;;21.50;59.20;;;;;;5031489;28;19920;-73
2023/08/21 02:50:18;;;;;;;;;;;21.50;59.50;;;;;;5032450;28;19927;-72
2023/08/21 02:52:44;;;;;;;;;;;21.50;59.50;;;;;;5034702;28;19916;-72
2023/08/21 02:55:09;;;;;;;;;;;21.60;59.50;;;;;;5035753;28;19917;-73
2023/08/21 02:57:35;;;;;;;;;;;21.60;59.40;;;;;;5035745;28;19916;-73
2023/08/21 03:00:00;;;;;;;;;;;21.70;59.40;;;;;;5035458;28;20294;-72
2023/08/21 03:02:26;;;;;;;;;;;21.70;59.40;;;;;;5035442;28;19916;-72
2023/08/21 03:04:51;;;;;;;;;;;21.70;59.40;;;;;;5035402;28;19909;-73
2023/08/21 03:07:18;;;;;;;;;;;21.70;59.40;;;;;;5035771;28;19909;-73
2023/08/21 03:09:45;;;;;;;;;;;21.80;59.50;;;;;;5035625;28;19909;-72
2023/08/21 03:12:10;;;;;;;;;;;21.80;59.40;;;;;;5035820;28;19917;-71
2023/08/21 03:14:36;;;;;;;;;;;21.80;59.20;;;;;;5035249;28;19909;-73
2023/08/21 03:17:01;;;;;;;;;;;21.80;59.30;;;;;;5035643;28;20307;-72
2023/08/21 03:19:27;;;;;;;;;;;21.80;59.20;;;;;;5035116;28;20262;-72
2023/08/21 03:21:52;;;;;;;;;;;21.80;59.20;;;;;;5035101;28;19944;-72
2023/08/21 03:24:17;;;;;;;;;;;21.70;59.10;;;;;;5035150;28;19909;-73
2023/08/21 03:26:43;;;;;;;;;;;21.70;59.10;;;;;;5035503;28;20016;-73
2023/08/21 03:29:09;;;;;;;;;;;21.70;59.00;;;;;;5034891;28;19913;-73
2023/08/21 03:31:34;;;;;;;;;;;21.70;59.00;;;;;;5035366;28;19924;-73
2023/08/21 03:34:00;;;;;;;;;;;21.70;59.00;;;;;;5034441;28;19913;-73
2023/08/21 03:36:31;;;;;;;;;;;21.60;59.10;;;;;;5035144;28;19956;-72
2023/08/21 03:39:00;;;;;;;;;;;21.60;59.30;;;;;;5034670;28;20322;-73
2023/08/21 03:41:26;;;;;;;;;;;21.50;59.30;;;;;;5035094;28;20373;-72
2023/08/21 03:43:52;;;;;;;;;;;21.50;59.50;;;;;;5034921;28;20039;-73
2023/08/21 03:46:17;;;;;;;;;;;21.40;59.60;;;;;;5034975;28;19917;-74
2023/08/21 03:48:42;;;;;;;;;;;21.30;59.60;;;;;;5034591;28;19920;-74
2023/08/21 03:51:08;;;;;;;;;;;21.30;59.60;;;;;;5034759;28;19928;-74
2023/08/21 03:53:33;;;;;;;;;;;21.30;59.60;;;;;;5034604;28;20288;-74
2023/08/21 03:55:59;;;;;;;;;;;21.30;59.60;;;;;;5034651;28;19917;-73
2023/08/21 03:58:26;;;;;;;;;;;21.30;59.60;;;;;;5034623;28;20000;-73
2023/08/21 04:00:52;;;;;;;;;;;21.30;59.60;;;;;;5034257;28;19917;-74
2023/08/21 04:03:17;;;;;;;;;;;21.30;59.80;;;;;;5034454;28;19959;-74
2023/08/21 04:05:43;;;;;;;;;;;21.20;60.30;;;;;;5034679;28;19921;-74
2023/08/21 04:08:08;;;;;;;;;;;21.20;60.70;;;;;;5034319;28;19952;-73
2023/08/21 04:10:34;;;;;;;;;;;21.20;60.60;;;;;;5034489;28;19999;-74
2023/08/21 04:12:59;;;;;;;;;;;21.20;60.40;;;;;;5034527;28;19909;-74
2023/08/21 04:15:25;;;;;;;;;;;21.10;60.40;;;;;;5034250;28;20430;-74
2023/08/21 04:17:50;;;;;;;;;;;21.20;60.40;;;;;;5034283;28;19916;-73
2023/08/21 04:20:16;;;;;;;;;;;21.20;60.40;;;;;;5033916;28;19944;-73
2023/08/21 04:22:41;;;;;;;;;;;21.20;60.50;;;;;;5034054;28;19909;-73
2023/08/21 04:25:07;;;;;;;;;;;21.30;60.50;;;;;;5033957;28;19924;-72
2023/08/21 04:27:33;;;;;;;;;;;21.40;60.50;;;;;;5029876;28;19914;-73
2023/08/21 04:29:59;;;;;;;;;;;21.40;60.50;;;;;;5014343;28;19949;-74
2023/08/21 04:32:24;;;;;;;;;;;21.50;60.80;;;;;;5016578;28;19992;-67
2023/08/21 04:34:50;;;;;;;;;;;21.50;61.10;;;;;;5032636;28;20403;-68
2023/08/21 04:37:15;;;;;;;;;;;21.60;61.30;;;;;;5033740;28;19919;-69
2023/08/21 04:39:41;;;;;;;;;;;21.60;61.30;;;;;;5033957;28;19999;-68
2023/08/21 04:42:06;;;;;;;;;;;21.70;61.10;;;;;;5032843;28;19924;-68
2023/08/21 04:44:32;;;;;;;;;;;21.70;61.10;;;;;;5033754;28;19909;-68
2023/08/21 04:46:57;;;;;;;;;;;21.80;61.00;;;;;;5034097;28;19983;-68
2023/08/21 04:49:23;;;;;;;;;;;21.80;60.90;;;;;;5033399;28;20007;-68
2023/08/21 04:51:48;;;;;;;;;;;21.90;60.90;;;;;;5034011;28;19959;-67
2023/08/21 04:54:13;;;;;;;;;;;22.00;60.80;;;;;;5033421;28;19909;-68
2023/08/21 04:56:39;;;;;;;;;;;22.10;60.70;;;;;;5034074;28;19917;-68
2023/08/21 04:59:04;;;;;;;;;;;22.20;60.80;;;;;;5027252;28;20012;-67
2023/08/21 05:01:30;;;;;;;;;;;22.30;60.70;;;;;;5033748;28;19920;-67
2023/08/21 05:03:55;;;;;;;;;;;22.30;60.60;;;;;;5020111;28;20006;-67
2023/08/21 05:06:21;;;;;;;;;;;22.30;60.50;;;;;;5013725;28;20345;-68
2023/08/21 05:08:46;;;;;;;;;;;22.40;60.40;;;;;;5013403;28;19956;-68
2023/08/21 05:11:11;;;;;;;;;;;22.40;60.30;;;;;;5013767;28;20353;-68
2023/08/21 05:13:37;;;;;;;;;;;22.50;60.30;;;;;;5028524;28;20392;-68
2023/08/21 05:16:02;;;;;;;;;;;22.60;60.30;;;;;;5033349;28;19967;-68
2023/08/21 05:18:31;;;;;;;;;;;22.60;60.30;;;;;;5032892;28;19916;-68
2023/08/21 05:20:56;;;;;;;;;;;22.70;60.30;;;;;;5033248;28;19917;-69
2023/08/21 05:23:22;;;;;;;;;;;22.90;60.70;;;;;;5032854;28;20330;-68
2023/08/21 05:25:50;;;;;;;;;;;23.10;60.70;;;;;;5031462;28;19963;-69
2023/08/21 05:28:16;;;;;;;;;;;23.30;60.60;;;;;;5009479;28;19980;-68
2023/08/21 05:30:41;;;;;;;;;;;23.50;60.80;;;;;;5013025;28;19972;-68
2023/08/21 05:33:07;;;;;;;;;;;23.80;60.50;;;;;;5012675;28;19909;-68
2023/08/21 05:35:35;;;;;;;;;;;23.90;60.30;;;;;;5012887;28;19917;-68
2023/08/21 05:38:01;;;;;;;;;;;24.00;60.00;;;;;;5029376;28;19909;-68
2023/08/21 05:40:27;;;;;;;;;;;24.10;59.80;;;;;;5031690;28;19967;-73
2023/08/21 05:42:52;;;;;;;;;;;24.30;60.30;;;;;;5013019;28;19913;-75
2023/08/21 05:45:18;;;;;;;;;;;24.80;60.90;;;;;;5020249;28;20034;-75
2023/08/21 05:47:43;;;;;;;;;;;25.30;60.80;;;;;;5033886;28;19910;-75
2023/08/21 05:50:09;;;;;;;;;;;25.80;60.50;;;;;;5032656;28;19921;-74
2023/08/21 05:52:34;;;;;;;;;;;26.20;59.20;;;;;;5025792;28;19917;-74
2023/08/21 05:55:00;;;;;;;;;;;26.60;58.60;;;;;;5012837;28;20373;-75
2023/08/21 05:57:25;;;;;;;;;;;26.70;57.40;;;;;;5024644;28;19967;-73
2023/08/21 05:59:51;;;;;;;;;;;26.90;56.70;;;;;;5032645;28;19913;-74
2023/08/21 06:02:16;;;;;;;;;;;26.90;55.90;;;;;;5032621;28;19958;-74
2023/08/21 06:04:45;;;;;;;;;;;26.80;55.30;;;;;;5015780;28;20175;-74
2023/08/21 06:07:10;;;;;;;;;;;26.80;55.10;;;;;;5013120;28;20441;-74
2023/08/21 06:09:36;;;;;;;;;;;26.90;55.50;;;;;;5012821;28;19964;-76
2023/08/21 06:12:02;;;;;;;;;;;27.20;55.20;;;;;;5012913;28;20344;-74
2023/08/21 06:14:31;;;;;;;;;;;27.20;54.40;;;;;;5011006;28;20365;-72
2023/08/21 06:17:00;;;;;;;;;;;27.20;54.10;;;;;;5018823;28;19971;-72
2023/08/21 06:19:25;;;;;;;;;;;27.20;54.40;;;;;;5032408;28;19943;-73
2023/08/21 06:21:51;;;;;;;;;;;27.60;55.20;;;;;;5032671;28;19913;-74
2023/08/21 06:24:16;;;;;;;;;;;28.10;55.30;;;;;;5032600;28;19919;-74
2023/08/21 06:26:42;;;;;;;;;;;28.70;54.40;;;;;;5032503;28;19928;-74
2023/08/21 06:29:07;;;;;;;;;;;29.30;53.60;;;;;;5032247;28;19920;-74
2023/08/21 06:31:33;;;;;;;;;;;29.90;52.40;;;;;;5032674;28;20008;-75
2023/08/21 06:33:58;;;;;;;;;;;30.60;51.70;;;;;;5030731;28;19923;-74
2023/08/21 06:36:24;;;;;;;;;;;31.20;50.40;;;;;;5026972;28;19913;-73
2023/08/21 06:38:49;;;;;;;;;;;31.50;48.30;;;;;;5026908;28;19921;-75
2023/08/21 06:41:14;;;;;;;;;;;31.70;46.60;;;;;;5032017;28;19909;-75
2023/08/21 06:43:41;;;;;;;;;;;31.80;45.70;;;;;;5030919;28;19952;-75
2023/08/21 06:46:06;;;;;;;;;;;31.90;44.90;;;;;;5023361;28;19948;-75
2023/08/21 06:48:32;;;;;;;;;;;32.00;44.40;;;;;;5031892;28;20003;-71
2023/08/21 06:50:57;;;;;;;;;;;32.10;43.80;;;;;;5029441;28;20365;-74
2023/08/21 06:53:23;;;;;;;;;;;32.30;43.30;;;;;;5030498;28;20027;-74
2023/08/21 06:55:48;;;;;;;;;;;32.50;43.00;;;;;;5031253;28;19917;-75
2023/08/21 06:58:14;;;;;;;;;;;32.80;42.50;;;;;;5029366;28;19918;-76
2023/08/21 07:00:39;;;;;;;;;;;33.00;41.60;;;;;;5031874;28;20387;-76
2023/08/21 07:03:07;;;;;;;;;;;33.30;41.40;;;;;;5030295;28;20277;-75
2023/08/21 07:05:33;;;;;;;;;;;33.90;41.10;;;;;;5031295;28;19917;-75
2023/08/21 07:07:58;;;;;;;;;;;34.50;40.80;;;;;;5031670;28;19917;-76
2023/08/21 07:10:24;;;;;;;;;;;35.20;39.50;;;;;;5030957;28;19963;-75
2023/08/21 07:12:49;;;;;;;;;;;35.50;37.90;;;;;;5031635;28;19921;-75
2023/08/21 07:15:15;;;;;;;;;;;35.70;36.90;;;;;;5030003;28;19956;-74
2023/08/21 07:17:41;;;;;;;;;;;35.80;36.60;;;;;;5031719;28;19913;-76
2023/08/21 07:20:06;;;;;;;;;;;36.10;36.70;;;;;;5030531;28;19924;-73
2023/08/21 07:22:32;;;;;;;;;;;36.50;35.90;;;;;;5031261;28;20330;-76
2023/08/21 07:24:57;;;;;;;;;;;36.80;35.30;;;;;;5030482;28;19909;-75
2023/08/21 07:27:23;;;;;;;;;;;37.30;34.20;;;;;;5030242;28;19917;-75
2023/08/21 07:29:48;;;;;;;;;;;37.70;32.70;;;;;;5030003;28;20007;-76
2023/08/21 07:32:14;;;;;;;;;;;38.10;31.60;;;;;;5030618;28;19953;-72
2023/08/21 07:34:39;;;;;;;;;;;38.40;31.10;;;;;;5030818;28;19921;-76
2023/08/21 07:37:07;;;;;;;;;;;38.60;29.90;;;;;;5032248;28;19931;-76
2023/08/21 07:39:32;;;;;;;;;;;38.50;29.40;;;;;;5015164;28;20258;-76
2023/08/21 07:41:58;;;;;;;;;;;38.40;29.30;;;;;;5020674;28;19920;-76
2023/08/21 07:44:23;;;;;;;;;;;38.40;28.90;;;;;;5033491;28;19967;-76
2023/08/21 07:46:49;;;;;;;;;;;38.30;29.10;;;;;;5035272;28;19935;-76
2023/08/21 07:49:14;;;;;;;;;;;38.30;28.50;;;;;;5032575;28;20441;-75
2023/08/21 07:51:39;;;;;;;;;;;38.20;28.70;;;;;;5032726;28;19920;-76
2023/08/21 07:54:05;;;;;;;;;;;38.20;28.30;;;;;;5035047;28;19936;-76
2023/08/21 07:56:31;;;;;;;;;;;38.30;28.30;;;;;;5035066;28;19913;-74
2023/08/21 07:58:56;;;;;;;;;;;38.30;28.00;;;;;;5034906;28;19977;-75
2023/08/21 08:01:22;;;;;;;;;;;38.40;27.70;;;;;;5033813;28;19913;-74
2023/08/21 08:03:48;;;;;;;;;;;38.30;26.60;;;;;;5035253;28;19953;-75
2023/08/21 08:06:14;;;;;;;;;;;38.20;27.00;;;;;;5034436;28;20277;-76
2023/08/21 08:08:39;;;;;;;;;;;38.30;27.30;;;;;;5034987;28;19917;-75
2023/08/21 08:11:06;;;;;;;;;;;38.50;27.40;;;;;;5033277;28;19924;-75
2023/08/21 08:13:31;;;;;;;;;;;38.60;26.80;;;;;;5034395;28;19913;-75
2023/08/21 08:15:57;;;;;;;;;;;38.80;26.70;;;;;;5033261;28;19913;-76
2023/08/21 08:18:22;;;;;;;;;;;39.10;26.40;;;;;;5032373;28;20164;-75
2023/08/21 08:20:48;;;;;;;;;;;39.20;26.10;;;;;;5029814;28;19969;-74
2023/08/21 08:23:13;;;;;;;;;;;39.40;25.50;;;;;;5030737;28;20361;-75
2023/08/21 08:25:39;;;;;;;;;;;39.40;25.30;;;;;;5033602;28;20319;-75
2023/08/21 08:28:05;;;;;;;;;;;39.50;24.90;;;;;;5020943;28;19913;-74
2023/08/21 08:30:30;;;;;;;;;;;39.40;25.00;;;;;;5033171;28;19935;-76
2023/08/21 08:32:56;;;;;;;;;;;39.30;24.90;;;;;;5034137;28;19910;-74
2023/08/21 08:35:21;;;;;;;;;;;39.10;25.20;;;;;;5032811;28;19928;-73
2023/08/21 08:37:47;;;;;;;;;;;39.00;25.20;;;;;;5032701;28;19916;-74
2023/08/21 08:40:13;;;;;;;;;;;39.00;25.70;;;;;;5034753;28;20292;-76
2023/08/21 08:42:39;;;;;;;;;;;39.20;25.90;;;;;;5033686;28;20341;-76
2023/08/21 08:45:05;;;;;;;;;;;39.40;25.90;;;;;;5035002;28;19909;-76
2023/08/21 08:47:34;;;;;;;;;;;39.70;26.10;;;;;;5031655;28;19917;-76
2023/08/21 08:50:04;;;;;;;;;;;39.80;25.70;;;;;;5033006;28;19939;-76
2023/08/21 08:52:30;;;;;;;;;;;40.00;25.40;;;;;;5034308;28;20008;-69
2023/08/21 08:54:57;;;;;;;;;;;40.20;25.10;;;;;;5030845;28;19909;-67
2023/08/21 08:57:23;;;;;;;;;;;40.30;25.00;;;;;;5031820;28;20004;-69
2023/08/21 08:59:48;;;;;;;;;;;40.40;24.90;;;;;;5031947;28;20099;-66
2023/08/21 09:02:14;;;;;;;;;;;40.50;24.80;;;;;;5031740;28;19971;-67
2023/08/21 09:04:40;;;;;;;;;;;40.40;24.70;;;;;;5033177;28;19916;-67
2023/08/21 09:07:06;;;;;;;;;;;40.40;24.30;;;;;;5033288;28;19921;-67
2023/08/21 09:09:44;;;;;;;;;;;40.10;24.20;;;;;;5030199;28;19979;-67
2023/08/21 09:12:12;;;;;;;;;;;40.10;24.70;;;;;;5033572;28;19967;-68
2023/08/21 09:14:38;;;;;;;;;;;39.90;24.40;;;;;;5030776;28;20303;-68
2023/08/21 09:17:04;;;;;;;;;;;39.70;24.50;;;;;;5030086;28;19965;-68
2023/08/21 09:19:29;;;;;;;;;;;39.50;24.90;;;;;;5031931;28;19990;-68
2023/08/21 09:21:54;;;;;;;;;;;39.50;24.80;;;;;;5031841;28;19961;-67
2023/08/21 09:24:20;;;;;;;;;;;39.30;24.30;;;;;;5032838;28;20296;-68
2023/08/21 09:26:45;;;;;;;;;;;39.20;24.60;;;;;;5033210;28;20000;-68
2023/08/21 09:29:11;;;;;;;;;;;39.20;24.60;;;;;;5032805;28;19909;-68
2023/08/21 09:31:36;;;;;;;;;;;39.20;24.80;;;;;;5033065;28;19917;-74
2023/08/21 09:34:05;;;;;;;;;;;39.30;25.00;;;;;;5032677;28;20320;-71
2023/08/21 09:36:31;;;;;;;;;;;39.40;25.00;;;;;;5031928;28;19921;-75
2023/08/21 09:38:57;;;;;;;;;;;39.60;24.90;;;;;;5032290;28;19917;-74
2023/08/21 09:41:23;;;;;;;;;;;39.90;24.70;;;;;;5031538;28;19927;-74
2023/08/21 09:43:49;;;;;;;;;;;40.20;24.80;;;;;;5032877;28;20000;-75
2023/08/21 09:46:18;;;;;;;;;;;40.60;24.30;;;;;;5031869;28;19921;-74
2023/08/21 09:48:45;;;;;;;;;;;40.70;23.60;;;;;;5032317;28;20407;-74
2023/08/21 09:51:11;;;;;;;;;;;40.50;23.60;;;;;;5030368;28;19921;-74
2023/08/21 09:53:37;;;;;;;;;;;40.30;23.90;;;;;;5032344;28;19914;-76
2023/08/21 09:56:03;;;;;;;;;;;40.20;24.00;;;;;;5031772;28;20060;-74
2023/08/21 09:58:28;;;;;;;;;;;39.90;24.20;;;;;;5031357;28;19913;-75
2023/08/21 10:00:57;;;;;;;;;;;39.70;24.20;;;;;;5032078;28;19932;-74
2023/08/21 10:03:22;;;;;;;;;;;39.40;24.80;;;;;;5031412;28;19913;-73
2023/08/21 10:05:48;;;;;;;;;;;39.30;24.90;;;;;;5032085;28;20048;-75
2023/08/21 10:08:15;;;;;;;;;;;39.00;25.00;;;;;;5030456;28;19917;-73
2023/08/21 10:10:40;;;;;;;;;;;38.70;25.30;;;;;;5032283;28;19952;-75
2023/08/21 10:13:07;;;;;;;;;;;38.50;25.90;;;;;;5032124;28;19940;-76
2023/08/21 10:15:33;;;;;;;;;;;38.70;25.80;;;;;;5031986;28;19917;-74
2023/08/21 10:18:17;;;;;;;;;;;38.80;25.50;;;;;;5032268;28;19909;-75
2023/08/21 10:20:43;;;;;;;;;;;38.80;25.50;;;;;;5031182;28;19947;-75
2023/08/21 10:23:08;;;;;;;;;;;38.50;25.50;;;;;;5032094;28;19913;-74
2023/08/21 10:25:40;;;;;;;;;;;38.50;25.70;;;;;;5031166;28;19917;-76
2023/08/21 10:28:06;;;;;;;;;;;38.80;25.90;;;;;;5032439;28;19913;-75
2023/08/21 10:30:31;;;;;;;;;;;39.20;25.80;;;;;;5031108;28;19921;-74
2023/08/21 10:32:58;;;;;;;;;;;39.30;25.20;;;;;;5031939;28;19956;-74
2023/08/21 10:35:27;;;;;;;;;;;39.60;25.20;;;;;;5030144;28;19917;-76
2023/08/21 10:38:12;;;;;;;;;;;39.90;25.30;;;;;;5031905;28;19979;-73
2023/08/21 10:40:41;;;;;;;;;;;40.40;25.20;;;;;;5031474;28;20312;-76
2023/08/21 10:43:25;;;;;;;;;;;40.80;24.40;;;;;;5031995;28;19913;-74
2023/08/21 10:45:55;;;;;;;;;;;41.10;24.00;;;;;;5030817;28;20002;-74
2023/08/21 10:48:20;;;;;;;;;;;41.10;24.00;;;;;;5031874;28;19913;-76
2023/08/21 10:50:46;;;;;;;;;;;41.20;23.90;;;;;;5030633;28;19928;-75
2023/08/21 10:53:11;;;;;;;;;;;41.20;23.60;;;;;;5031696;28;19959;-73
2023/08/21 10:55:37;;;;;;;;;;;40.90;23.20;;;;;;5031894;28;19917;-76
2023/08/21 10:58:02;;;;;;;;;;;40.60;23.40;;;;;;5030360;28;20625;-76
2023/08/21 11:00:28;;;;;;;;;;;40.50;23.60;;;;;;5031495;28;20379;-76
2023/08/21 11:02:54;;;;;;;;;;;40.60;23.80;;;;;;5028820;28;20012;-75
2023/08/21 11:05:20;;;;;;;;;;;40.60;23.70;;;;;;5031567;28;19917;-74
2023/08/21 11:07:46;;;;;;;;;;;40.70;23.60;;;;;;5030202;28;19935;-74
2023/08/21 11:10:21;;;;;;;;;;;40.70;23.50;;;;;;5030585;28;19917;-75
2023/08/21 11:12:56;;;;;;;;;;;40.80;23.40;;;;;;5035039;28;19910;-75
2023/08/21 11:15:22;;;;;;;;;;;40.50;23.20;;;;;;5034695;28;20130;-75
2023/08/21 11:17:54;;;;;;;;;;;40.20;23.20;;;;;;5036786;28;20372;-74
2023/08/21 11:20:19;;;;;;;;;;;39.70;23.40;;;;;;5015929;28;20274;-74
2023/08/21 11:22:45;;;;;;;;;;;39.20;23.90;;;;;;5015649;28;19943;-74
2023/08/21 11:25:11;;;;;;;;;;;39.00;24.40;;;;;;5032873;28;19968;-74
2023/08/21 11:27:37;;;;;;;;;;;38.80;24.70;;;;;;5035353;28;19958;-76
2023/08/21 11:30:03;;;;;;;;;;;38.70;25.20;;;;;;5032427;28;20012;-74
2023/08/21 11:32:29;;;;;;;;;;;38.80;25.40;;;;;;5034952;28;20377;-73
2023/08/21 11:34:55;;;;;;;;;;;38.80;25.30;;;;;;5034785;28;19916;-75
2023/08/21 11:37:22;;;;;;;;;;;38.80;25.40;;;;;;5034510;28;19920;-75
2023/08/21 11:39:51;;;;;;;;;;;38.80;25.50;;;;;;5034777;28;20015;-74
2023/08/21 11:42:17;;;;;;;;;;;38.60;25.50;;;;;;5033356;28;20390;-67
2023/08/21 11:44:47;;;;;;;;;;;38.40;25.60;;;;;;5034605;28;19920;-68
2023/08/21 11:47:13;;;;;;;;;;;38.30;25.60;;;;;;5034795;28;19921;-68
2023/08/21 11:49:39;;;;;;;;;;;38.30;25.80;;;;;;5031097;28;19917;-67
2023/08/21 11:52:05;;;;;;;;;;;38.30;25.60;;;;;;5034353;28;19917;-67
2023/08/21 11:54:35;;;;;;;;;;;38.30;25.80;;;;;;5034568;28;20450;-67
2023/08/21 11:57:03;;;;;;;;;;;38.40;25.60;;;;;;5033676;28;20073;-69
2023/08/21 11:59:29;;;;;;;;;;;38.40;25.70;;;;;;5032706;28;19979;-67
2023/08/21 12:01:55;;;;;;;;;;;38.40;25.30;;;;;;5035051;28;19913;-67
2023/08/21 12:04:20;;;;;;;;;;;38.30;25.30;;;;;;5033431;28;19963;-67
2023/08/21 12:06:46;;;;;;;;;;;38.20;25.00;;;;;;5034705;28;19922;-68
2023/08/21 12:09:11;;;;;;;;;;;38.10;25.10;;;;;;5033565;28;19913;-68
2023/08/21 12:11:38;;;;;;;;;;;38.10;25.00;;;;;;5034498;28;20353;-67
2023/08/21 12:14:04;;;;;;;;;;;38.00;24.80;;;;;;5034178;28;19921;-67
2023/08/21 12:16:29;;;;;;;;;;;37.90;24.80;;;;;;5032894;28;19921;-68
2023/08/21 12:18:57;;;;;;;;;;;37.90;25.20;;;;;;5032347;28;20380;-67
2023/08/21 12:21:25;;;;;;;;;;;38.20;25.40;;;;;;5032347;28;19917;-67
2023/08/21 12:23:51;;;;;;;;;;;38.40;25.00;;;;;;5033185;28;20376;-67
2023/08/21 12:26:20;;;;;;;;;;;38.50;25.00;;;;;;5034241;28;20004;-67
2023/08/21 12:28:46;;;;;;;;;;;38.60;24.70;;;;;;5032590;28;19913;-67
2023/08/21 12:31:11;;;;;;;;;;;38.50;24.70;;;;;;5032303;28;20297;-67
2023/08/21 12:33:37;;;;;;;;;;;38.40;24.80;;;;;;5033870;28;19996;-67
2023/08/21 12:36:03;;;;;;;;;;;38.40;25.00;;;;;;5032921;28;19917;-67
2023/08/21 12:38:29;;;;;;;;;;;38.30;25.00;;;;;;5034042;28;19937;-68
2023/08/21 12:40:54;;;;;;;;;;;38.10;25.10;;;;;;5033786;28;20019;-67
2023/08/21 12:43:20;;;;;;;;;;;37.90;25.30;;;;;;5032867;28;20383;-67
2023/08/21 12:45:46;;;;;;;;;;;37.80;25.60;;;;;;5032613;28;19921;-67
2023/08/21 12:48:11;;;;;;;;;;;37.70;25.90;;;;;;5032137;28;20000;-67
2023/08/21 12:50:37;;;;;;;;;;;37.70;26.00;;;;;;5032714;28;19921;-75
2023/08/21 12:53:02;;;;;;;;;;;37.50;26.10;;;;;;5033975;28;20360;-75
2023/08/21 12:55:28;;;;;;;;;;;37.20;26.20;;;;;;5032272;28;20016;-76
2023/08/21 12:57:55;;;;;;;;;;;37.10;26.60;;;;;;5033662;28;19913;-74
2023/08/21 13:00:20;;;;;;;;;;;37.10;26.70;;;;;;5030349;28;20378;-73
2023/08/21 13:02:46;;;;;;;;;;;37.10;26.60;;;;;;5032358;28;19913;-74
2023/08/21 13:05:11;;;;;;;;;;;37.30;26.90;;;;;;5033521;28;19913;-75
2023/08/21 13:07:36;;;;;;;;;;;37.30;26.60;;;;;;5032333;28;19913;-75
2023/08/21 13:10:02;;;;;;;;;;;37.30;26.60;;;;;;5033105;28;20403;-74
2023/08/21 13:12:28;;;;;;;;;;;37.10;26.50;;;;;;5032287;28;19913;-72
2023/08/21 13:14:54;;;;;;;;;;;36.80;26.80;;;;;;5032000;28;20063;-76
2023/08/21 13:17:19;;;;;;;;;;;36.70;27.20;;;;;;5033287;28;20007;-75
2023/08/21 13:19:45;;;;;;;;;;;36.50;27.20;;;;;;5031703;28;19917;-73
2023/08/21 13:22:10;;;;;;;;;;;36.30;27.60;;;;;;5033365;28;19917;-71
2023/08/21 13:24:36;;;;;;;;;;;36.40;27.80;;;;;;5032460;28;19913;-75
2023/08/21 13:27:01;;;;;;;;;;;36.80;27.70;;;;;;5033293;28;19924;-74
2023/08/21 13:29:27;;;;;;;;;;;36.90;27.70;;;;;;5032033;28;20281;-78
2023/08/21 13:31:52;;;;;;;;;;;37.10;27.10;;;;;;5031620;28;19917;-74
2023/08/21 13:34:18;;;;;;;;;;;36.90;27.30;;;;;;5030739;28;19913;-75
2023/08/21 13:36:43;;;;;;;;;;;36.70;27.50;;;;;;5033039;28;20012;-74
2023/08/21 13:39:10;;;;;;;;;;;36.30;28.00;;;;;;5031402;28;20391;-76
2023/08/21 13:41:36;;;;;;;;;;;35.90;27.70;;;;;;5033338;28;20327;-76
2023/08/21 13:44:03;;;;;;;;;;;35.40;28.40;;;;;;5032194;28;19993;-73
2023/08/21 13:46:28;;;;;;;;;;;35.10;28.90;;;;;;5045463;28;19925;-75
2023/08/21 13:48:54;;;;;;;;;;;35.00;29.30;;;;;;5029863;28;19913;-74
2023/08/21 13:51:22;;;;;;;;;;;34.80;29.40;;;;;;5031714;28;19921;-75
2023/08/21 13:53:48;;;;;;;;;;;35.00;29.60;;;;;;5031523;28;19959;-76
2023/08/21 13:56:13;;;;;;;;;;;35.20;29.40;;;;;;5030798;28;19925;-75
2023/08/21 13:58:38;;;;;;;;;;;35.40;29.30;;;;;;5031839;28;19913;-76
2023/08/21 14:01:04;;;;;;;;;;;35.50;28.70;;;;;;5031542;28;20054;-75
2023/08/21 14:03:29;;;;;;;;;;;35.60;28.70;;;;;;5032300;28;19920;-74
2023/08/21 14:05:55;;;;;;;;;;;35.70;28.50;;;;;;5031394;28;20008;-74
2023/08/21 14:08:20;;;;;;;;;;;35.70;28.50;;;;;;5032233;28;19966;-77
2023/08/21 14:10:46;;;;;;;;;;;35.40;28.20;;;;;;5032665;28;20327;-77